Time;durP1;ratioP1;P1;durP2;ratioP2;P2;SDS_P1;SDS_P2;PMS_P1;PMS_P2;Temp;Humidity;BMP_temperature;BMP_pressure;BME280_temperature;BME280_humidity;BME280_pressure;Samples;Min_cycle;Max_cycle;Signal;HPM_P1;HPM_P2
2023/03/28 00:01:08;;;;;;;8.80;2.30;;;3.10;99.90;;;;;;5033620;28;20447;-74
2023/03/28 00:03:38;;;;;;;7.27;2.60;;;3.10;99.90;;;;;;5016301;28;20435;-74
2023/03/28 00:06:10;;;;;;;9.60;2.50;;;3.10;99.90;;;;;;5033607;28;20520;-73
2023/03/28 00:08:39;;;;;;;9.40;2.50;;;3.10;99.90;;;;;;5033595;28;20433;-74
2023/03/28 00:11:10;;;;;;;6.83;1.80;;;3.10;99.90;;;;;;5015556;28;20461;-73
2023/03/28 00:13:38;;;;;;;11.00;2.20;;;3.10;99.90;;;;;;5033389;28;20505;-73
2023/03/28 00:16:11;;;;;;;6.23;2.00;;;3.20;99.90;;;;;;5033265;28;20476;-73
2023/03/28 00:18:41;;;;;;;6.10;2.07;;;3.20;99.90;;;;;;5033711;28;20454;-74
2023/03/28 00:21:22;;;;;;;10.70;2.30;;;3.10;99.90;;;;;;5033185;28;20449;-74
2023/03/28 00:23:52;;;;;;;7.13;2.13;;;3.10;99.90;;;;;;5031962;28;20451;-74
2023/03/28 00:26:23;;;;;;;8.33;2.23;;;3.10;99.90;;;;;;5033005;28;20427;-72
2023/03/28 00:28:52;;;;;;;9.87;2.23;;;3.20;99.90;;;;;;5016742;28;20452;-73
2023/03/28 00:31:22;;;;;;;11.00;2.33;;;3.20;99.90;;;;;;5015847;28;20821;-73
2023/03/28 00:33:51;;;;;;;8.37;2.40;;;3.10;99.90;;;;;;5031798;28;20463;-73
2023/03/28 00:36:21;;;;;;;12.60;2.50;;;3.20;99.90;;;;;;5031814;28;20451;-73
2023/03/28 00:38:51;;;;;;;10.13;2.60;;;3.20;99.90;;;;;;5015441;28;20449;-73
2023/03/28 00:41:20;;;;;;;10.40;2.27;;;3.20;99.90;;;;;;5033116;28;20868;-73
2023/03/28 00:43:50;;;;;;;6.03;2.07;;;3.20;99.90;;;;;;5015394;28;20484;-74
2023/03/28 00:46:25;;;;;;;9.90;1.87;;;3.20;99.90;;;;;;5016244;28;20543;-74
2023/03/28 00:48:59;;;;;;;8.50;2.10;;;3.20;99.90;;;;;;5017560;28;20951;-73
2023/03/28 00:51:32;;;;;;;10.10;2.87;;;3.20;99.90;;;;;;5015346;28;20564;-73
2023/03/28 00:54:02;;;;;;;9.00;2.40;;;3.20;99.90;;;;;;5018994;28;20807;-73
2023/03/28 00:56:34;;;;;;;6.70;2.33;;;3.20;99.90;;;;;;5035763;28;20448;-74
2023/03/28 00:59:06;;;;;;;6.97;2.30;;;3.00;99.90;;;;;;5019164;28;20446;-74
2023/03/28 01:01:36;;;;;;;11.07;2.30;;;3.10;99.90;;;;;;5019091;28;20909;-73
2023/03/28 01:04:08;;;;;;;9.83;2.50;;;3.10;99.90;;;;;;5019145;28;20447;-74
2023/03/28 01:06:41;;;;;;;8.20;1.93;;;3.10;99.90;;;;;;5035578;28;20448;-73
2023/03/28 01:09:15;;;;;;;9.67;2.87;;;3.10;99.90;;;;;;5019031;28;20454;-73
2023/03/28 01:11:48;;;;;;;10.03;2.63;;;3.00;99.90;;;;;;5018857;28;20472;-74
2023/03/28 01:14:20;;;;;;;8.20;2.20;;;3.00;99.90;;;;;;5018829;28;20998;-74
2023/03/28 01:16:51;;;;;;;8.77;2.10;;;3.00;99.90;;;;;;5018763;28;20867;-74
2023/03/28 01:19:31;;;;;;;9.63;2.30;;;3.10;99.90;;;;;;5018835;28;20464;-73
2023/03/28 01:22:41;;;;;;;10.27;2.20;;;3.00;99.90;;;;;;5018600;28;20580;-73
2023/03/28 01:25:59;;;;;;;9.30;2.30;;;3.00;99.90;;;;;;5018771;28;20489;-73
2023/03/28 01:28:59;;;;;;;9.93;2.53;;;3.00;99.90;;;;;;5018537;28;20556;-73
2023/03/28 01:31:59;;;;;;;9.03;2.23;;;3.00;99.90;;;;;;5017517;28;20512;-72
2023/03/28 01:35:07;;;;;;;6.97;2.20;;;3.00;99.90;;;;;;5018401;28;20470;-73
2023/03/28 01:37:44;;;;;;;7.00;2.10;;;3.00;99.90;;;;;;5018091;28;20475;-73
2023/03/28 01:40:24;;;;;;;6.37;2.20;;;3.00;99.90;;;;;;5015074;28;20478;-73
2023/03/28 01:43:11;;;;;;;8.57;2.00;;;3.00;99.90;;;;;;5018135;28;20441;-73
2023/03/28 01:45:48;;;;;;;7.93;1.83;;;3.00;99.90;;;;;;5018304;28;20957;-73
2023/03/28 01:48:27;;;;;;;6.63;2.03;;;3.00;99.90;;;;;;5018225;28;20446;-73
2023/03/28 01:51:02;;;;;;;8.80;3.20;;;3.00;99.90;;;;;;5017684;28;20561;-73
2023/03/28 01:53:38;;;;;;;7.90;2.20;;;3.00;99.90;;;;;;5018021;28;20977;-73
2023/03/28 01:56:14;;;;;;;8.50;2.50;;;3.00;99.90;;;;;;5018317;28;20934;-73
2023/03/28 01:58:46;;;;;;;10.00;2.87;;;3.00;99.90;;;;;;5017964;28;20895;-73
2023/03/28 02:01:29;;;;;;;10.40;2.53;;;2.90;99.90;;;;;;5018046;28;20479;-73
2023/03/28 02:04:02;;;;;;;7.43;1.90;;;2.90;99.90;;;;;;5017336;28;20458;-73
2023/03/28 02:06:37;;;;;;;10.43;2.60;;;2.90;99.90;;;;;;5018352;28;20813;-73
2023/03/28 02:09:13;;;;;;;6.40;2.23;;;2.90;99.90;;;;;;5018091;28;20985;-73
2023/03/28 02:12:13;;;;;;;8.33;2.40;;;2.90;99.90;;;;;;5017769;28;20842;-73
2023/03/28 02:15:03;;;;;;;10.80;3.00;;;2.90;99.90;;;;;;5035489;28;20465;-73
2023/03/28 02:18:01;;;;;;;7.30;3.20;;;2.90;99.90;;;;;;5035196;28;20443;-73
2023/03/28 02:20:43;;;;;;;8.33;2.97;;;2.90;99.90;;;;;;5017673;28;20551;-73
2023/03/28 02:23:37;;;;;;;11.00;2.93;;;2.90;99.90;;;;;;5035386;28;20520;-73
2023/03/28 02:26:28;;;;;;;10.97;3.40;;;2.90;99.90;;;;;;5018346;28;20454;-73
2023/03/28 02:29:08;;;;;;;13.83;3.20;;;2.90;99.90;;;;;;5035356;28;20433;-73
2023/03/28 02:31:58;;;;;;;12.20;3.10;;;2.90;99.90;;;;;;5017257;28;20503;-73
2023/03/28 02:34:26;;;;;;;9.20;2.43;;;2.90;99.90;;;;;;5033742;28;20476;-72
2023/03/28 02:37:06;;;;;;;7.27;2.53;;;2.90;99.90;;;;;;5033885;28;20469;-73
2023/03/28 02:39:57;;;;;;;8.30;2.70;;;2.90;99.90;;;;;;5033869;28;20526;-73
2023/03/28 02:42:54;;;;;;;10.43;2.83;;;2.90;99.90;;;;;;5017259;28;20563;-73
2023/03/28 02:45:45;;;;;;;8.83;2.77;;;2.90;99.90;;;;;;5033871;28;20438;-73
2023/03/28 02:48:25;;;;;;;7.53;2.10;;;2.90;99.90;;;;;;5006077;28;20461;-73
2023/03/28 02:51:05;;;;;;;10.30;2.93;;;2.90;99.90;;;;;;5033467;28;20475;-73
2023/03/28 02:53:43;;;;;;;6.70;2.30;;;2.90;99.90;;;;;;5033507;28;20481;-73
2023/03/28 02:56:21;;;;;;;14.43;3.00;;;2.90;99.90;;;;;;5033449;28;20545;-74
2023/03/28 02:59:11;;;;;;;10.57;2.30;;;2.90;99.90;;;;;;5033408;28;20952;-73
2023/03/28 03:01:40;;;;;;;8.30;2.37;;;2.90;99.90;;;;;;5033906;28;20463;-73
2023/03/28 03:04:08;;;;;;;5.33;2.30;;;2.90;99.90;;;;;;5034558;28;20966;-73
2023/03/28 03:06:36;;;;;;;8.10;2.10;;;2.90;99.90;;;;;;5016772;28;20446;-73
2023/03/28 03:09:05;;;;;;;8.17;2.93;;;2.90;99.90;;;;;;5033087;28;20450;-73
2023/03/28 03:11:33;;;;;;;9.03;2.40;;;2.90;99.90;;;;;;5016649;28;20798;-73
2023/03/28 03:14:01;;;;;;;11.90;2.60;;;3.00;99.90;;;;;;5034222;28;20467;-74
2023/03/28 03:16:31;;;;;;;8.80;1.90;;;2.90;99.90;;;;;;5015632;28;20449;-73
2023/03/28 03:19:00;;;;;;;10.87;3.53;;;2.90;99.90;;;;;;5016702;28;20475;-73
2023/03/28 03:21:28;;;;;;;10.57;2.57;;;2.90;99.90;;;;;;5032818;28;20876;-73
2023/03/28 03:23:59;;;;;;;9.57;2.47;;;2.90;99.90;;;;;;5034496;28;20425;-73
2023/03/28 03:26:27;;;;;;;9.87;2.27;;;2.90;99.90;;;;;;5016353;28;20531;-73
2023/03/28 03:29:01;;;;;;;9.60;3.10;;;2.90;99.90;;;;;;5032856;28;20448;-73
2023/03/28 03:31:33;;;;;;;12.20;2.33;;;2.90;99.90;;;;;;5016366;28;20930;-73
2023/03/28 03:34:23;;;;;;;7.57;3.00;;;2.90;99.90;;;;;;5033166;28;20483;-73
2023/03/28 03:36:55;;;;;;;9.50;2.47;;;2.90;99.90;;;;;;5015434;28;20462;-72
2023/03/28 03:39:24;;;;;;;7.13;2.17;;;2.90;99.90;;;;;;5016183;28;20457;-73
2023/03/28 03:41:52;;;;;;;9.00;2.30;;;2.90;99.90;;;;;;5016062;28;20460;-73
2023/03/28 03:44:20;;;;;;;13.50;3.50;;;2.90;99.90;;;;;;5033796;28;20438;-73
2023/03/28 03:46:49;;;;;;;5.77;2.00;;;2.90;99.90;;;;;;5033848;28;20435;-73
2023/03/28 03:49:17;;;;;;;10.77;3.00;;;2.90;99.90;;;;;;5016071;28;20461;-73
2023/03/28 03:51:46;;;;;;;7.87;2.53;;;2.90;99.90;;;;;;5015822;28;20475;-73
2023/03/28 03:54:17;;;;;;;9.80;2.83;;;2.90;99.90;;;;;;5015918;28;20475;-73
2023/03/28 03:56:45;;;;;;;10.30;2.80;;;2.90;99.90;;;;;;5015955;28;20447;-73
2023/03/28 03:59:15;;;;;;;7.70;2.67;;;2.80;99.90;;;;;;5016368;28;20451;-73
2023/03/28 04:01:45;;;;;;;11.57;3.27;;;2.80;99.90;;;;;;5016127;28;20508;-72
2023/03/28 04:04:33;;;;;;;11.37;2.20;;;2.80;99.90;;;;;;5034158;28;20420;-73
2023/03/28 04:07:10;;;;;;;7.40;2.30;;;2.80;99.90;;;;;;5015745;28;20530;-73
2023/03/28 04:09:39;;;;;;;7.70;2.93;;;2.80;99.90;;;;;;5015551;28;20446;-72
2023/03/28 04:12:08;;;;;;;12.50;3.20;;;2.70;99.90;;;;;;5015672;28;20477;-73
2023/03/28 04:14:47;;;;;;;7.50;3.30;;;2.70;99.90;;;;;;5015859;28;20530;-73
2023/03/28 04:17:43;;;;;;;8.17;2.87;;;2.70;99.90;;;;;;5002932;28;20816;-73
2023/03/28 04:20:19;;;;;;;14.43;3.00;;;2.70;99.90;;;;;;5032078;28;20450;-73
2023/03/28 04:23:08;;;;;;;12.03;4.50;;;2.70;99.90;;;;;;5015678;28;20443;-73
2023/03/28 04:25:40;;;;;;;9.90;2.90;;;2.70;99.90;;;;;;5015662;28;20870;-73
2023/03/28 04:28:15;;;;;;;8.33;2.53;;;2.70;99.90;;;;;;5032300;28;20825;-73
2023/03/28 04:31:12;;;;;;;7.13;2.23;;;2.70;99.90;;;;;;5020812;28;20504;-73
2023/03/28 04:34:04;;;;;;;9.47;2.30;;;2.60;99.90;;;;;;5023262;28;20435;-73
2023/03/28 04:36:39;;;;;;;10.40;3.13;;;2.60;99.90;;;;;;5032812;28;20546;-73
2023/03/28 04:39:08;;;;;;;7.37;2.37;;;2.60;99.90;;;;;;5032002;28;20441;-73
2023/03/28 04:41:54;;;;;;;12.13;2.77;;;2.60;99.90;;;;;;5015234;28;20560;-72
2023/03/28 04:44:47;;;;;;;9.00;2.70;;;2.60;99.90;;;;;;5032163;28;20982;-72
2023/03/28 04:47:17;;;;;;;13.57;3.30;;;2.60;99.90;;;;;;5031560;28;20458;-72
2023/03/28 04:49:47;;;;;;;13.03;3.27;;;2.60;99.90;;;;;;5015560;28;20460;-73
2023/03/28 04:52:17;;;;;;;10.93;3.00;;;2.60;99.90;;;;;;5015281;28;20864;-73
2023/03/28 04:54:47;;;;;;;6.83;2.70;;;2.50;99.90;;;;;;5015264;28;20896;-73
2023/03/28 04:57:17;;;;;;;11.63;2.80;;;2.50;99.90;;;;;;5015386;28;20454;-73
2023/03/28 04:59:52;;;;;;;8.90;2.67;;;2.50;99.90;;;;;;5015529;28;20454;-72
2023/03/28 05:02:43;;;;;;;11.63;2.63;;;2.50;99.90;;;;;;5014082;28;20445;-73
2023/03/28 05:05:15;;;;;;;11.53;3.77;;;2.50;99.90;;;;;;5015206;28;20453;-73
2023/03/28 05:07:44;;;;;;;8.23;2.90;;;2.40;99.90;;;;;;5015228;28;20454;-72
2023/03/28 05:10:13;;;;;;;12.80;3.03;;;2.40;99.90;;;;;;5015424;28;20486;-73
2023/03/28 05:12:41;;;;;;;13.73;2.90;;;2.40;99.90;;;;;;5015458;28;20446;-73
2023/03/28 05:15:10;;;;;;;7.77;3.00;;;2.50;99.90;;;;;;5015073;28;20467;-73
2023/03/28 05:18:16;;;;;;;11.23;3.10;;;2.50;99.90;;;;;;5015752;28;20583;-74
2023/03/28 05:20:45;;;;;;;8.37;3.50;;;2.50;99.90;;;;;;5014931;28;20513;-73
2023/03/28 05:23:15;;;;;;;13.17;3.70;;;2.50;99.90;;;;;;5015031;28;20541;-74
2023/03/28 05:25:51;;;;;;;8.00;3.10;;;2.40;99.90;;;;;;5015164;28;20457;-74
2023/03/28 05:28:20;;;;;;;9.47;3.23;;;2.40;99.90;;;;;;5015028;28;20477;-74
2023/03/28 05:30:51;;;;;;;12.13;5.37;;;2.40;99.90;;;;;;5014883;28;20458;-73
2023/03/28 05:33:19;;;;;;;14.73;3.97;;;2.50;99.90;;;;;;5015023;28;20452;-73
2023/03/28 05:35:48;;;;;;;11.30;4.40;;;2.40;99.90;;;;;;5014849;28;20478;-74
2023/03/28 05:38:18;;;;;;;9.50;4.47;;;2.40;99.90;;;;;;5014922;28;20450;-73
2023/03/28 05:40:52;;;;;;;14.90;4.70;;;2.40;99.90;;;;;;5017740;28;20557;-73
2023/03/28 05:43:20;;;;;;;9.47;3.50;;;2.40;99.90;;;;;;5018231;28;20485;-73
2023/03/28 05:45:48;;;;;;;17.10;4.70;;;2.40;99.90;;;;;;5018221;28;20449;-73
2023/03/28 05:48:23;;;;;;;15.63;4.73;;;2.40;99.90;;;;;;5018269;28;20451;-73
2023/03/28 05:50:51;;;;;;;15.77;5.27;;;2.40;99.90;;;;;;5035837;28;20824;-73
2023/03/28 05:53:21;;;;;;;7.20;3.30;;;2.40;99.90;;;;;;5018461;28;20453;-73
2023/03/28 05:55:50;;;;;;;10.47;3.80;;;2.50;99.90;;;;;;5018017;28;20477;-74
2023/03/28 05:58:18;;;;;;;6.70;3.80;;;2.50;99.90;;;;;;5018015;28;20975;-73
2023/03/28 06:00:47;;;;;;;11.53;4.10;;;2.50;99.90;;;;;;5017985;28;20520;-73
2023/03/28 06:03:15;;;;;;;10.00;3.40;;;2.50;99.90;;;;;;5035686;28;20459;-74
2023/03/28 06:05:46;;;;;;;8.90;3.80;;;2.50;99.90;;;;;;5017898;28;20480;-73
2023/03/28 06:08:21;;;;;;;11.53;3.60;;;2.50;99.90;;;;;;5018064;28;20434;-73
2023/03/28 06:10:50;;;;;;;11.63;3.93;;;2.50;99.90;;;;;;5017979;28;20470;-73
2023/03/28 06:13:30;;;;;;;14.47;5.60;;;2.60;99.90;;;;;;5018642;28;20446;-73
2023/03/28 06:15:59;;;;;;;13.90;5.33;;;2.60;99.90;;;;;;5018450;28;20510;-73
2023/03/28 06:18:33;;;;;;;17.33;6.60;;;2.70;99.90;;;;;;5018007;28;20835;-74
2023/03/28 06:21:01;;;;;;;14.30;4.90;;;2.80;99.90;;;;;;5017652;28;20986;-74
2023/03/28 06:23:31;;;;;;;14.00;4.03;;;2.80;99.90;;;;;;5017615;28;20458;-74
2023/03/28 06:26:00;;;;;;;11.80;4.40;;;3.00;99.90;;;;;;5017760;28;20450;-74
2023/03/28 06:28:35;;;;;;;8.67;4.20;;;3.10;99.90;;;;;;5034305;28;20446;-74
2023/03/28 06:31:23;;;;;;;13.20;6.80;;;3.30;99.90;;;;;;5017399;28;20847;-73
2023/03/28 06:33:52;;;;;;;9.03;3.60;;;3.60;99.90;;;;;;5017249;28;20459;-74
2023/03/28 06:36:22;;;;;;;12.30;4.00;;;3.70;99.90;;;;;;5017441;28;20478;-74
2023/03/28 06:38:52;;;;;;;12.00;4.87;;;3.80;99.90;;;;;;5017298;28;21045;-74
2023/03/28 06:41:23;;;;;;;13.93;4.87;;;3.90;99.90;;;;;;5017267;28;20501;-73
2023/03/28 06:43:51;;;;;;;12.90;4.20;;;3.80;99.90;;;;;;5017320;28;20470;-74
2023/03/28 06:46:58;;;;;;;10.97;4.07;;;3.80;99.90;;;;;;4955026;29;20438;-74
2023/03/28 06:49:26;;;;;;;15.30;3.70;;;3.70;99.90;;;;;;4938797;29;20489;-74
2023/03/28 06:51:59;;;;;;;9.10;3.63;;;3.70;99.90;;;;;;4996469;28;20571;-74
2023/03/28 06:54:30;;;;;;;15.40;4.60;;;3.80;99.90;;;;;;5017756;28;20450;-74
2023/03/28 06:56:58;;;;;;;13.47;4.87;;;3.80;99.90;;;;;;5034907;28;20497;-74
2023/03/28 06:59:28;;;;;;;11.07;4.00;;;3.80;99.90;;;;;;5016971;28;20470;-73
2023/03/28 07:02:01;;;;;;;10.03;4.23;;;3.80;99.90;;;;;;5016814;28;20470;-73
2023/03/28 07:04:33;;;;;;;14.67;4.13;;;3.80;99.90;;;;;;5017353;28;20448;-74
2023/03/28 07:07:03;;;;;;;17.17;5.00;;;4.00;99.90;;;;;;5017297;28;20426;-74
2023/03/28 07:09:32;;;;;;;14.33;3.70;;;4.10;99.90;;;;;;5016832;28;20511;-74
2023/03/28 07:12:07;;;;;;;11.10;3.77;;;4.20;99.90;;;;;;5017194;28;20481;-74
2023/03/28 07:14:35;;;;;;;9.30;4.03;;;4.30;99.90;;;;;;5016942;28;20873;-74
2023/03/28 07:17:03;;;;;;;9.30;3.67;;;4.40;99.90;;;;;;5034786;28;20553;-74
2023/03/28 07:19:32;;;;;;;10.70;3.63;;;4.50;99.90;;;;;;5016628;28;20538;-74
2023/03/28 07:22:01;;;;;;;12.67;4.03;;;4.60;99.90;;;;;;5034508;28;20464;-74
2023/03/28 07:24:29;;;;;;;9.97;3.30;;;4.60;99.90;;;;;;5016745;28;20537;-74
2023/03/28 07:27:12;;;;;;;11.53;3.10;;;4.60;99.90;;;;;;5016734;28;20561;-74
2023/03/28 07:29:45;;;;;;;9.60;3.90;;;4.60;99.90;;;;;;5016409;28;20497;-74
2023/03/28 07:32:14;;;;;;;14.10;3.50;;;4.50;99.90;;;;;;5016290;28;20467;-73
2023/03/28 07:34:45;;;;;;;12.37;3.30;;;4.50;99.90;;;;;;5016352;28;20455;-74
2023/03/28 07:37:19;;;;;;;13.27;3.60;;;4.50;99.90;;;;;;5016779;28;20877;-74
2023/03/28 07:40:16;;;;;;;12.13;4.20;;;4.50;99.90;;;;;;5012326;28;20869;-74
2023/03/28 07:42:48;;;;;;;11.43;3.60;;;4.70;99.90;;;;;;5016186;28;20483;-74
2023/03/28 07:45:16;;;;;;;13.07;4.53;;;4.80;99.90;;;;;;5034418;28;20441;-74
2023/03/28 07:47:45;;;;;;;13.00;4.03;;;4.90;99.90;;;;;;5034030;28;20474;-73
2023/03/28 07:50:13;;;;;;;10.83;3.67;;;5.10;99.90;;;;;;5015907;28;20545;-73
2023/03/28 07:52:44;;;;;;;12.40;3.60;;;5.20;99.90;;;;;;5015998;28;20458;-74
2023/03/28 07:55:13;;;;;;;14.13;4.50;;;5.20;99.90;;;;;;5016080;28;20431;-74
2023/03/28 07:57:48;;;;;;;10.07;4.13;;;5.20;99.90;;;;;;5016934;28;20463;-74
2023/03/28 08:00:46;;;;;;;10.60;3.63;;;5.20;99.90;;;;;;5025881;28;20460;-74
2023/03/28 08:03:33;;;;;;;10.30;3.53;;;5.30;99.90;;;;;;5033548;28;20761;-74
2023/03/28 08:06:04;;;;;;;14.20;4.63;;;5.50;99.90;;;;;;5032339;28;20960;-74
2023/03/28 08:08:44;;;;;;;11.20;4.27;;;5.70;99.90;;;;;;5032497;28;20447;-74
2023/03/28 08:11:22;;;;;;;16.40;3.87;;;5.90;99.90;;;;;;5016299;28;20475;-74
2023/03/28 08:13:51;;;;;;;12.70;4.50;;;6.10;99.90;;;;;;5033707;28;20920;-74
2023/03/28 08:16:23;;;;;;;8.00;3.00;;;6.30;99.90;;;;;;5016493;28;20443;-74
2023/03/28 08:18:52;;;;;;;13.03;4.20;;;6.50;99.90;;;;;;5015784;28;20959;-74
2023/03/28 08:21:46;;;;;;;11.47;4.17;;;6.60;99.90;;;;;;5015589;28;20522;-74
2023/03/28 08:24:15;;;;;;;10.80;3.97;;;6.80;99.90;;;;;;5015623;28;20811;-74
2023/03/28 08:27:04;;;;;;;12.47;3.97;;;7.00;99.90;;;;;;5015641;28;20477;-74
2023/03/28 08:29:34;;;;;;;14.53;4.10;;;7.10;99.90;;;;;;5015782;28;20448;-74
2023/03/28 08:32:05;;;;;;;11.00;3.70;;;7.20;99.90;;;;;;5015432;28;20474;-74
2023/03/28 08:34:33;;;;;;;8.50;3.90;;;7.40;99.90;;;;;;5015569;28;20449;-74
2023/03/28 08:37:08;;;;;;;15.17;4.43;;;7.40;99.90;;;;;;5015875;28;20525;-74
2023/03/28 08:39:38;;;;;;;10.07;3.47;;;7.40;99.90;;;;;;5015837;28;20814;-74
2023/03/28 08:42:28;;;;;;;13.60;4.00;;;7.40;99.90;;;;;;5033143;28;20462;-74
2023/03/28 08:45:15;;;;;;;8.70;2.93;;;7.50;99.90;;;;;;5015930;28;20449;-74
2023/03/28 08:47:55;;;;;;;13.80;2.93;;;7.50;99.90;;;;;;5015588;28;20449;-74
2023/03/28 08:50:28;;;;;;;9.33;3.30;;;7.50;99.90;;;;;;5015210;28;20827;-74
2023/03/28 08:52:57;;;;;;;12.73;3.20;;;7.50;99.90;;;;;;5015268;28;20436;-74
2023/03/28 08:55:32;;;;;;;9.80;2.80;;;7.60;99.90;;;;;;5015618;28;20539;-74
2023/03/28 08:58:01;;;;;;;10.80;3.47;;;7.70;99.90;;;;;;5031738;28;20470;-74
2023/03/28 09:00:32;;;;;;;8.20;3.77;;;7.60;99.90;;;;;;5032897;28;20869;-74
2023/03/28 09:03:01;;;;;;;11.73;3.60;;;7.70;99.90;;;;;;5015236;28;20460;-74
2023/03/28 09:05:35;;;;;;;8.53;3.10;;;7.70;99.90;;;;;;5033439;28;20432;-74
2023/03/28 09:08:23;;;;;;;8.67;2.90;;;7.70;99.90;;;;;;5016824;28;20980;-73
2023/03/28 09:11:02;;;;;;;9.63;3.50;;;7.80;99.90;;;;;;5016318;28;20466;-73
2023/03/28 09:13:39;;;;;;;9.47;3.10;;;7.90;99.90;;;;;;5018497;28;20454;-73
2023/03/28 09:16:20;;;;;;;14.27;3.40;;;7.80;99.90;;;;;;5036061;28;20448;-73
2023/03/28 09:19:19;;;;;;;9.40;2.90;;;7.90;99.90;;;;;;5035529;28;20828;-73
2023/03/28 09:22:02;;;;;;;9.77;3.57;;;7.90;99.90;;;;;;5018837;28;20481;-73
2023/03/28 09:24:59;;;;;;;10.43;3.77;;;8.00;99.90;;;;;;5018691;28;20450;-74
2023/03/28 09:27:34;;;;;;;9.10;2.77;;;8.00;99.90;;;;;;5018686;28;20858;-74
2023/03/28 09:30:18;;;;;;;9.73;3.17;;;8.00;99.90;;;;;;5018827;28;21021;-73
2023/03/28 09:32:49;;;;;;;10.10;3.30;;;8.10;99.90;;;;;;5018642;28;20439;-74
2023/03/28 09:35:21;;;;;;;13.07;3.80;;;8.20;99.90;;;;;;5018483;28;20462;-73
2023/03/28 09:37:53;;;;;;;12.57;3.17;;;8.20;99.90;;;;;;5018400;28;20983;-74
2023/03/28 09:40:26;;;;;;;9.70;3.10;;;8.20;99.90;;;;;;5018328;28;20439;-73
2023/03/28 09:43:19;;;;;;;10.30;3.70;;;8.20;99.90;;;;;;5036721;28;20872;-73
2023/03/28 09:46:14;;;;;;;8.27;3.00;;;8.20;99.90;;;;;;5035364;28;20446;-74
2023/03/28 09:49:02;;;;;;;9.40;3.27;;;8.30;99.90;;;;;;5036313;28;20461;-74
2023/03/28 09:51:37;;;;;;;8.20;2.80;;;8.40;99.90;;;;;;5034613;28;20816;-73
2023/03/28 09:54:06;;;;;;;8.50;2.73;;;8.40;99.90;;;;;;5018134;28;20451;-74
2023/03/28 09:56:38;;;;;;;8.80;2.60;;;8.50;99.90;;;;;;5018088;28;20443;-74
2023/03/28 09:59:38;;;;;;;10.77;2.90;;;8.50;99.90;;;;;;5018416;28;20958;-73
2023/03/28 10:02:26;;;;;;;9.37;2.87;;;8.60;99.90;;;;;;5018017;28;20471;-73
2023/03/28 10:04:57;;;;;;;8.80;2.87;;;8.70;99.90;;;;;;5017983;28;20455;-74
2023/03/28 10:07:43;;;;;;;9.73;2.67;;;8.70;99.90;;;;;;5017903;28;20948;-74
2023/03/28 10:10:37;;;;;;;9.33;2.73;;;8.70;99.90;;;;;;5017753;28;21026;-74
2023/03/28 10:13:10;;;;;;;9.27;2.73;;;8.60;99.90;;;;;;5017808;28;20529;-73
2023/03/28 10:15:42;;;;;;;9.13;2.00;;;8.60;99.90;;;;;;5017789;28;20960;-74
2023/03/28 10:18:26;;;;;;;8.73;2.90;;;8.50;99.90;;;;;;5035746;28;20562;-73
2023/03/28 10:21:14;;;;;;;8.83;3.27;;;8.50;99.90;;;;;;5017596;28;20556;-73
2023/03/28 10:23:52;;;;;;;10.20;4.20;;;8.50;99.90;;;;;;5017601;28;20830;-73
2023/03/28 10:26:26;;;;;;;9.80;4.80;;;8.50;99.90;;;;;;5017053;28;20865;-74
2023/03/28 10:29:00;;;;;;;10.27;5.20;;;8.50;99.90;;;;;;5034487;28;20469;-73
2023/03/28 10:31:33;;;;;;;7.83;2.87;;;8.40;99.90;;;;;;5017577;28;20554;-73
2023/03/28 10:34:32;;;;;;;8.23;2.73;;;8.50;99.90;;;;;;4947894;28;20846;-74
2023/03/28 10:37:27;;;;;;;5.90;2.27;;;8.50;99.90;;;;;;5017703;28;20447;-73
2023/03/28 10:40:28;;;;;;;8.73;2.63;;;8.40;99.90;;;;;;5034620;28;20956;-73
2023/03/28 10:43:13;;;;;;;6.47;2.30;;;8.40;99.90;;;;;;5035027;28;20795;-73
2023/03/28 10:46:16;;;;;;;11.33;2.63;;;8.50;99.90;;;;;;5017175;28;20831;-73
2023/03/28 10:49:06;;;;;;;7.67;2.70;;;8.50;99.90;;;;;;5017376;28;20469;-73
2023/03/28 10:51:41;;;;;;;7.73;2.40;;;8.60;99.90;;;;;;5017386;28;20983;-73
2023/03/28 10:54:49;;;;;;;7.23;1.80;;;8.60;99.90;;;;;;5017589;28;20787;-73
2023/03/28 10:57:46;;;;;;;9.30;2.53;;;8.70;99.90;;;;;;5017191;28;20519;-73
2023/03/28 11:00:20;;;;;;;7.50;2.33;;;8.80;99.90;;;;;;5016778;28;20944;-73
2023/03/28 11:03:11;;;;;;;6.27;2.60;;;8.90;99.90;;;;;;5016932;28;20451;-73
2023/03/28 11:05:51;;;;;;;6.90;2.30;;;8.90;99.90;;;;;;5016863;28;20454;-72
2023/03/28 11:08:45;;;;;;;10.70;3.97;;;8.90;99.90;;;;;;5016844;28;20497;-73
2023/03/28 11:11:34;;;;;;;6.00;2.97;;;9.00;99.90;;;;;;5016726;28;20466;-73
2023/03/28 11:14:15;;;;;;;8.00;2.27;;;9.10;99.90;;;;;;5016582;28;20444;-73
2023/03/28 11:16:51;;;;;;;5.87;2.07;;;9.20;99.90;;;;;;5017739;28;20450;-73
2023/03/28 11:20:07;;;;;;;6.73;2.30;;;9.30;99.90;;;;;;5016604;28;20550;-73
2023/03/28 11:22:53;;;;;;;4.60;1.90;;;9.40;99.90;;;;;;5017291;28;20439;-72
2023/03/28 11:25:45;;;;;;;6.13;1.73;;;9.50;99.90;;;;;;5017369;28;20466;-72
2023/03/28 11:28:47;;;;;;;7.43;2.40;;;9.60;99.90;;;;;;5035311;28;20419;-72
2023/03/28 11:31:24;;;;;;;6.53;2.40;;;9.60;99.90;;;;;;5016921;28;20526;-73
2023/03/28 11:34:04;;;;;;;9.37;3.20;;;9.70;99.90;;;;;;5016608;28;20442;-73
2023/03/28 11:36:37;;;;;;;5.80;2.20;;;9.80;99.90;;;;;;5034122;28;20454;-72
2023/03/28 11:39:13;;;;;;;6.97;1.90;;;9.90;99.90;;;;;;5017840;28;20637;-72
2023/03/28 11:41:44;;;;;;;7.13;2.17;;;9.90;99.90;;;;;;5016338;28;21050;-72
2023/03/28 11:44:23;;;;;;;7.63;2.23;;;9.90;99.90;;;;;;5016217;28;20447;-73
2023/03/28 11:46:57;;;;;;;8.73;2.67;;;10.00;99.90;;;;;;5016160;28;20438;-73
2023/03/28 11:49:32;;;;;;;7.43;2.20;;;10.00;99.90;;;;;;5016118;28;20856;-74
2023/03/28 11:52:06;;;;;;;7.83;2.70;;;9.90;99.90;;;;;;5016029;28;20467;-73
2023/03/28 11:54:40;;;;;;;7.00;2.77;;;9.90;99.90;;;;;;5016617;28;20451;-73
2023/03/28 11:57:17;;;;;;;6.87;2.30;;;9.80;99.90;;;;;;5033981;28;20506;-73
2023/03/28 12:00:04;;;;;;;7.73;2.13;;;9.80;99.90;;;;;;5015961;28;20471;-73
2023/03/28 12:02:46;;;;;;;7.70;3.60;;;9.90;99.90;;;;;;5033977;28;20451;-72
2023/03/28 12:05:24;;;;;;;7.77;4.20;;;10.00;99.90;;;;;;5016473;28;20451;-72
2023/03/28 12:07:57;;;;;;;7.00;2.40;;;10.00;99.90;;;;;;5016164;28;20874;-73
2023/03/28 12:10:34;;;;;;;5.27;1.83;;;10.00;99.90;;;;;;5015836;28;20475;-73
2023/03/28 12:13:12;;;;;;;6.00;2.43;;;10.10;99.90;;;;;;5032477;28;20458;-73
2023/03/28 12:15:52;;;;;;;5.47;2.37;;;10.10;99.90;;;;;;5032295;28;20439;-73
2023/03/28 12:18:30;;;;;;;8.60;2.50;;;10.20;99.90;;;;;;5015569;28;20443;-73
2023/03/28 12:21:05;;;;;;;6.27;2.37;;;10.10;99.90;;;;;;5015845;28;20516;-73
2023/03/28 12:23:52;;;;;;;7.50;2.60;;;10.10;99.90;;;;;;5016148;28;20790;-73
2023/03/28 12:26:34;;;;;;;6.73;2.20;;;10.10;99.90;;;;;;5032525;28;20830;-73
2023/03/28 12:29:10;;;;;;;6.47;2.40;;;10.10;99.90;;;;;;5015616;28;20481;-73
2023/03/28 12:31:46;;;;;;;8.33;2.80;;;10.20;99.90;;;;;;5015542;28;20462;-73
2023/03/28 12:34:28;;;;;;;7.17;2.53;;;10.20;99.90;;;;;;5015520;28;20569;-73
2023/03/28 12:37:21;;;;;;;10.53;3.07;;;10.20;99.90;;;;;;5033352;28;20941;-73
2023/03/28 12:39:56;;;;;;;4.30;2.00;;;10.20;99.90;;;;;;5015434;28;20462;-72
2023/03/28 12:42:29;;;;;;;8.13;2.57;;;10.20;99.90;;;;;;5015507;28;20470;-72
2023/03/28 12:45:00;;;;;;;12.97;2.97;;;10.20;99.90;;;;;;5015408;28;20505;-73
2023/03/28 12:47:34;;;;;;;8.00;2.90;;;10.10;99.90;;;;;;5015435;28;20889;-73
2023/03/28 12:50:07;;;;;;;5.90;2.03;;;10.10;99.90;;;;;;5019174;28;20451;-73
2023/03/28 12:52:37;;;;;;;6.53;2.80;;;10.00;99.90;;;;;;5019412;28;20485;-73
2023/03/28 12:55:46;;;;;;;7.97;2.70;;;10.00;99.90;;;;;;5019466;28;20465;-73
2023/03/28 12:58:25;;;;;;;6.93;2.80;;;9.90;99.90;;;;;;5019246;28;20431;-73
2023/03/28 13:01:21;;;;;;;8.00;3.20;;;9.80;99.90;;;;;;5037257;28;20497;-73
2023/03/28 13:04:31;;;;;;;8.70;3.00;;;9.70;99.90;;;;;;5020404;28;20447;-73
2023/03/28 13:07:23;;;;;;;10.80;2.27;;;9.60;99.90;;;;;;5019497;28;20454;-73
2023/03/28 13:10:01;;;;;;;7.20;2.37;;;9.60;99.90;;;;;;5037199;28;20419;-73
2023/03/28 13:12:46;;;;;;;5.03;2.30;;;9.50;99.90;;;;;;5019013;28;20470;-73
2023/03/28 13:15:30;;;;;;;6.43;2.50;;;9.50;99.90;;;;;;5018966;28;20450;-73
2023/03/28 13:18:31;;;;;;;7.93;2.60;;;9.50;99.90;;;;;;5036929;28;20422;-73
2023/03/28 13:21:04;;;;;;;7.90;2.73;;;9.40;99.90;;;;;;5036812;28;20483;-73
2023/03/28 13:23:35;;;;;;;7.87;2.70;;;9.40;99.90;;;;;;5037132;28;20534;-73
2023/03/28 13:26:05;;;;;;;7.27;2.90;;;9.40;99.90;;;;;;5036809;28;20446;-73
2023/03/28 13:28:42;;;;;;;10.17;2.90;;;9.50;99.90;;;;;;5018643;28;20489;-73
2023/03/28 13:31:22;;;;;;;5.80;3.10;;;9.50;99.90;;;;;;5036331;28;20875;-73
2023/03/28 13:33:57;;;;;;;4.60;2.40;;;9.60;99.90;;;;;;5036407;28;20418;-73
2023/03/28 13:36:29;;;;;;;7.10;2.50;;;9.60;99.90;;;;;;5036508;28;20454;-73
2023/03/28 13:39:08;;;;;;;8.00;3.20;;;9.60;99.90;;;;;;5036149;28;20431;-73
2023/03/28 13:42:02;;;;;;;5.60;2.30;;;9.60;99.90;;;;;;5036141;28;20454;-73
2023/03/28 13:44:42;;;;;;;6.70;2.90;;;9.60;99.90;;;;;;5018395;28;20950;-73
2023/03/28 13:47:20;;;;;;;5.90;2.47;;;9.60;99.90;;;;;;5018726;28;20435;-73